sensor_id;sensor_type;location;lat;lon;timestamp;P1;durP1;ratioP1;P2;durP2;ratioP2
33760;SDS011;20084;47.912;19.044;2022-07-09T00:00:52;1.92;;;1.13;;
33760;SDS011;20084;47.912;19.044;2022-07-09T00:03:17;1.95;;;1.27;;
33760;SDS011;20084;47.912;19.044;2022-07-09T00:05:43;2.13;;;0.82;;
33760;SDS011;20084;47.912;19.044;2022-07-09T00:08:09;2.28;;;0.95;;
33760;SDS011;20084;47.912;19.044;2022-07-09T00:10:34;4.38;;;1.00;;
33760;SDS011;20084;47.912;19.044;2022-07-09T00:13:00;1.80;;;0.80;;
33760;SDS011;20084;47.912;19.044;2022-07-09T00:15:25;2.50;;;0.70;;
33760;SDS011;20084;47.912;19.044;2022-07-09T00:17:51;2.35;;;0.80;;
33760;SDS011;20084;47.912;19.044;2022-07-09T00:20:17;5.57;;;1.20;;
33760;SDS011;20084;47.912;19.044;2022-07-09T00:22:43;4.47;;;1.10;;
33760;SDS011;20084;47.912;19.044;2022-07-09T00:25:08;3.80;;;0.80;;
33760;SDS011;20084;47.912;19.044;2022-07-09T00:27:34;1.70;;;0.88;;
33760;SDS011;20084;47.912;19.044;2022-07-09T00:30:00;2.58;;;0.88;;
33760;SDS011;20084;47.912;19.044;2022-07-09T00:32:26;3.15;;;0.77;;
33760;SDS011;20084;47.912;19.044;2022-07-09T00:34:52;1.83;;;0.90;;
33760;SDS011;20084;47.912;19.044;2022-07-09T00:37:17;2.13;;;0.80;;
33760;SDS011;20084;47.912;19.044;2022-07-09T00:39:43;1.88;;;1.05;;
33760;SDS011;20084;47.912;19.044;2022-07-09T00:42:09;4.75;;;0.95;;
33760;SDS011;20084;47.912;19.044;2022-07-09T00:44:36;5.05;;;0.90;;
33760;SDS011;20084;47.912;19.044;2022-07-09T00:47:02;2.70;;;1.10;;
33760;SDS011;20084;47.912;19.044;2022-07-09T00:49:32;2.95;;;1.00;;
33760;SDS011;20084;47.912;19.044;2022-07-09T00:52:03;3.35;;;1.13;;
33760;SDS011;20084;47.912;19.044;2022-07-09T00:54:31;2.50;;;1.10;;
33760;SDS011;20084;47.912;19.044;2022-07-09T00:56:57;1.45;;;0.90;;
33760;SDS011;20084;47.912;19.044;2022-07-09T00:59:23;1.42;;;0.75;;
33760;SDS011;20084;47.912;19.044;2022-07-09T01:01:49;1.75;;;0.80;;
33760;SDS011;20084;47.912;19.044;2022-07-09T01:04:15;1.45;;;1.05;;
33760;SDS011;20084;47.912;19.044;2022-07-09T01:06:42;2.58;;;0.98;;
33760;SDS011;20084;47.912;19.044;2022-07-09T01:09:07;2.47;;;0.85;;
33760;SDS011;20084;47.912;19.044;2022-07-09T01:11:34;1.70;;;0.95;;
33760;SDS011;20084;47.912;19.044;2022-07-09T01:14:00;3.42;;;1.10;;
33760;SDS011;20084;47.912;19.044;2022-07-09T01:16:35;2.40;;;0.90;;
33760;SDS011;20084;47.912;19.044;2022-07-09T01:19:02;4.03;;;1.00;;
33760;SDS011;20084;47.912;19.044;2022-07-09T01:21:28;1.63;;;0.80;;
33760;SDS011;20084;47.912;19.044;2022-07-09T01:23:54;2.28;;;0.80;;
33760;SDS011;20084;47.912;19.044;2022-07-09T01:26:20;1.85;;;1.15;;
33760;SDS011;20084;47.912;19.044;2022-07-09T01:28:46;2.38;;;0.90;;
33760;SDS011;20084;47.912;19.044;2022-07-09T01:31:12;2.20;;;0.90;;
33760;SDS011;20084;47.912;19.044;2022-07-09T01:33:38;2.03;;;1.00;;
33760;SDS011;20084;47.912;19.044;2022-07-09T01:36:05;5.13;;;0.90;;
33760;SDS011;20084;47.912;19.044;2022-07-09T01:38:31;1.45;;;0.77;;
33760;SDS011;20084;47.912;19.044;2022-07-09T01:40:57;5.63;;;0.95;;
33760;SDS011;20084;47.912;19.044;2022-07-09T01:43:22;2.92;;;1.05;;
33760;SDS011;20084;47.912;19.044;2022-07-09T01:45:48;3.50;;;1.00;;
33760;SDS011;20084;47.912;19.044;2022-07-09T01:48:14;1.27;;;0.95;;
33760;SDS011;20084;47.912;19.044;2022-07-09T01:50:40;1.75;;;0.80;;
33760;SDS011;20084;47.912;19.044;2022-07-09T01:53:06;2.72;;;0.80;;
33760;SDS011;20084;47.912;19.044;2022-07-09T01:55:32;2.50;;;1.00;;
33760;SDS011;20084;47.912;19.044;2022-07-09T01:57:57;1.38;;;0.93;;
33760;SDS011;20084;47.912;19.044;2022-07-09T02:00:23;3.15;;;0.90;;
33760;SDS011;20084;47.912;19.044;2022-07-09T02:02:49;1.98;;;0.90;;
33760;SDS011;20084;47.912;19.044;2022-07-09T02:05:14;1.83;;;0.90;;
33760;SDS011;20084;47.912;19.044;2022-07-09T02:07:40;1.65;;;0.95;;
33760;SDS011;20084;47.912;19.044;2022-07-09T02:10:06;2.33;;;1.13;;
33760;SDS011;20084;47.912;19.044;2022-07-09T02:12:32;2.28;;;1.20;;
33760;SDS011;20084;47.912;19.044;2022-07-09T02:14:58;3.00;;;1.20;;
33760;SDS011;20084;47.912;19.044;2022-07-09T02:17:24;2.72;;;1.38;;
33760;SDS011;20084;47.912;19.044;2022-07-09T02:19:50;4.47;;;1.13;;
33760;SDS011;20084;47.912;19.044;2022-07-09T02:22:15;2.58;;;1.20;;
33760;SDS011;20084;47.912;19.044;2022-07-09T02:24:41;4.95;;;1.52;;
33760;SDS011;20084;47.912;19.044;2022-07-09T02:27:06;3.85;;;1.20;;
33760;SDS011;20084;47.912;19.044;2022-07-09T02:29:32;0.80;;;0.80;;
33760;SDS011;20084;47.912;19.044;2022-07-09T02:31:58;1.65;;;0.90;;
33760;SDS011;20084;47.912;19.044;2022-07-09T02:34:24;2.35;;;0.98;;
33760;SDS011;20084;47.912;19.044;2022-07-09T02:36:50;1.25;;;1.02;;
33760;SDS011;20084;47.912;19.044;2022-07-09T02:39:16;2.72;;;1.13;;
33760;SDS011;20084;47.912;19.044;2022-07-09T02:41:42;2.70;;;1.08;;
33760;SDS011;20084;47.912;19.044;2022-07-09T02:44:08;3.75;;;1.10;;
33760;SDS011;20084;47.912;19.044;2022-07-09T02:46:34;2.42;;;1.08;;
33760;SDS011;20084;47.912;19.044;2022-07-09T02:49:00;1.85;;;1.23;;
33760;SDS011;20084;47.912;19.044;2022-07-09T02:51:25;2.78;;;1.10;;
33760;SDS011;20084;47.912;19.044;2022-07-09T02:53:51;2.83;;;1.10;;
33760;SDS011;20084;47.912;19.044;2022-07-09T02:56:17;4.15;;;1.55;;
33760;SDS011;20084;47.912;19.044;2022-07-09T02:58:42;2.53;;;1.20;;
33760;SDS011;20084;47.912;19.044;2022-07-09T03:01:08;3.67;;;1.63;;
33760;SDS011;20084;47.912;19.044;2022-07-09T03:03:33;0.95;;;0.88;;
33760;SDS011;20084;47.912;19.044;2022-07-09T03:06:02;2.90;;;1.52;;
33760;SDS011;20084;47.912;19.044;2022-07-09T03:08:28;1.23;;;0.90;;
33760;SDS011;20084;47.912;19.044;2022-07-09T03:10:54;1.83;;;1.13;;
33760;SDS011;20084;47.912;19.044;2022-07-09T03:13:20;1.70;;;0.95;;
33760;SDS011;20084;47.912;19.044;2022-07-09T03:15:46;2.35;;;1.00;;
33760;SDS011;20084;47.912;19.044;2022-07-09T03:18:30;2.03;;;1.05;;
33760;SDS011;20084;47.912;19.044;2022-07-09T03:20:56;6.05;;;1.88;;
33760;SDS011;20084;47.912;19.044;2022-07-09T03:23:22;1.33;;;0.85;;
33760;SDS011;20084;47.912;19.044;2022-07-09T03:25:48;2.05;;;1.15;;
33760;SDS011;20084;47.912;19.044;2022-07-09T03:28:13;2.50;;;1.13;;
33760;SDS011;20084;47.912;19.044;2022-07-09T03:30:39;8.77;;;1.45;;
33760;SDS011;20084;47.912;19.044;2022-07-09T03:33:04;2.97;;;1.02;;
33760;SDS011;20084;47.912;19.044;2022-07-09T03:35:30;5.55;;;1.10;;
33760;SDS011;20084;47.912;19.044;2022-07-09T03:37:56;3.70;;;1.15;;
33760;SDS011;20084;47.912;19.044;2022-07-09T03:40:22;2.00;;;1.17;;
33760;SDS011;20084;47.912;19.044;2022-07-09T03:42:47;2.70;;;1.20;;
33760;SDS011;20084;47.912;19.044;2022-07-09T03:45:13;2.58;;;1.13;;
33760;SDS011;20084;47.912;19.044;2022-07-09T03:47:39;3.42;;;1.27;;
33760;SDS011;20084;47.912;19.044;2022-07-09T03:50:05;1.88;;;1.08;;
33760;SDS011;20084;47.912;19.044;2022-07-09T03:52:31;3.17;;;0.90;;
33760;SDS011;20084;47.912;19.044;2022-07-09T03:54:57;3.53;;;1.20;;
33760;SDS011;20084;47.912;19.044;2022-07-09T03:57:22;5.32;;;1.30;;
33760;SDS011;20084;47.912;19.044;2022-07-09T03:59:48;3.63;;;0.90;;
33760;SDS011;20084;47.912;19.044;2022-07-09T04:02:14;3.70;;;1.08;;
33760;SDS011;20084;47.912;19.044;2022-07-09T04:04:40;5.10;;;1.13;;
33760;SDS011;20084;47.912;19.044;2022-07-09T04:07:06;2.17;;;1.20;;
33760;SDS011;20084;47.912;19.044;2022-07-09T04:09:31;1.92;;;0.90;;
33760;SDS011;20084;47.912;19.044;2022-07-09T04:11:57;3.88;;;1.00;;
33760;SDS011;20084;47.912;19.044;2022-07-09T04:14:23;2.33;;;0.80;;
33760;SDS011;20084;47.912;19.044;2022-07-09T04:16:48;2.58;;;1.35;;
33760;SDS011;20084;47.912;19.044;2022-07-09T04:19:14;1.98;;;1.05;;
33760;SDS011;20084;47.912;19.044;2022-07-09T04:21:39;1.73;;;1.10;;
33760;SDS011;20084;47.912;19.044;2022-07-09T04:24:05;1.55;;;0.90;;
33760;SDS011;20084;47.912;19.044;2022-07-09T04:26:31;9.95;;;1.30;;
33760;SDS011;20084;47.912;19.044;2022-07-09T04:28:57;2.60;;;1.00;;
33760;SDS011;20084;47.912;19.044;2022-07-09T04:31:22;3.47;;;0.80;;
33760;SDS011;20084;47.912;19.044;2022-07-09T04:33:48;1.85;;;1.15;;
33760;SDS011;20084;47.912;19.044;2022-07-09T04:36:14;3.08;;;1.10;;
33760;SDS011;20084;47.912;19.044;2022-07-09T04:38:40;2.15;;;1.00;;
33760;SDS011;20084;47.912;19.044;2022-07-09T04:41:06;1.90;;;1.00;;
33760;SDS011;20084;47.912;19.044;2022-07-09T04:43:31;1.98;;;0.98;;
33760;SDS011;20084;47.912;19.044;2022-07-09T04:45:57;7.10;;;1.10;;
33760;SDS011;20084;47.912;19.044;2022-07-09T04:48:24;3.80;;;1.10;;
33760;SDS011;20084;47.912;19.044;2022-07-09T04:50:50;1.40;;;0.95;;
33760;SDS011;20084;47.912;19.044;2022-07-09T04:53:15;1.95;;;0.70;;
33760;SDS011;20084;47.912;19.044;2022-07-09T04:55:41;2.53;;;0.90;;
33760;SDS011;20084;47.912;19.044;2022-07-09T04:58:07;2.35;;;0.75;;
33760;SDS011;20084;47.912;19.044;2022-07-09T05:00:33;1.83;;;0.80;;
33760;SDS011;20084;47.912;19.044;2022-07-09T05:02:59;4.28;;;0.98;;
33760;SDS011;20084;47.912;19.044;2022-07-09T05:05:25;3.70;;;0.90;;
33760;SDS011;20084;47.912;19.044;2022-07-09T05:07:51;2.60;;;1.00;;
33760;SDS011;20084;47.912;19.044;2022-07-09T05:10:17;1.50;;;0.70;;
33760;SDS011;20084;47.912;19.044;2022-07-09T05:12:43;2.70;;;1.00;;
33760;SDS011;20084;47.912;19.044;2022-07-09T05:15:09;2.60;;;0.70;;
33760;SDS011;20084;47.912;19.044;2022-07-09T05:17:35;1.60;;;0.98;;
33760;SDS011;20084;47.912;19.044;2022-07-09T05:20:03;2.13;;;1.15;;
33760;SDS011;20084;47.912;19.044;2022-07-09T05:22:30;4.53;;;1.40;;
33760;SDS011;20084;47.912;19.044;2022-07-09T05:24:57;2.55;;;0.90;;
33760;SDS011;20084;47.912;19.044;2022-07-09T05:27:23;2.88;;;0.80;;
33760;SDS011;20084;47.912;19.044;2022-07-09T05:29:49;7.05;;;0.90;;
33760;SDS011;20084;47.912;19.044;2022-07-09T05:32:15;2.03;;;1.00;;
33760;SDS011;20084;47.912;19.044;2022-07-09T05:34:41;3.97;;;1.20;;
33760;SDS011;20084;47.912;19.044;2022-07-09T05:37:07;4.60;;;0.90;;
33760;SDS011;20084;47.912;19.044;2022-07-09T05:39:33;2.03;;;1.05;;
33760;SDS011;20084;47.912;19.044;2022-07-09T05:41:59;3.72;;;1.08;;
33760;SDS011;20084;47.912;19.044;2022-07-09T05:44:24;1.65;;;0.70;;
33760;SDS011;20084;47.912;19.044;2022-07-09T05:46:50;2.13;;;0.95;;
33760;SDS011;20084;47.912;19.044;2022-07-09T05:49:16;4.35;;;1.20;;
33760;SDS011;20084;47.912;19.044;2022-07-09T05:51:41;3.33;;;1.17;;
33760;SDS011;20084;47.912;19.044;2022-07-09T05:54:07;3.72;;;1.25;;
33760;SDS011;20084;47.912;19.044;2022-07-09T05:56:32;1.92;;;0.70;;
33760;SDS011;20084;47.912;19.044;2022-07-09T05:58:59;2.25;;;0.88;;
33760;SDS011;20084;47.912;19.044;2022-07-09T06:01:25;3.47;;;0.80;;
33760;SDS011;20084;47.912;19.044;2022-07-09T06:03:50;3.33;;;1.00;;
33760;SDS011;20084;47.912;19.044;2022-07-09T06:06:16;2.28;;;1.10;;
33760;SDS011;20084;47.912;19.044;2022-07-09T06:08:42;2.08;;;0.98;;
33760;SDS011;20084;47.912;19.044;2022-07-09T06:11:07;1.55;;;1.15;;
33760;SDS011;20084;47.912;19.044;2022-07-09T06:13:33;2.85;;;0.70;;
33760;SDS011;20084;47.912;19.044;2022-07-09T06:15:59;2.28;;;0.85;;
33760;SDS011;20084;47.912;19.044;2022-07-09T06:18:24;1.75;;;0.98;;
33760;SDS011;20084;47.912;19.044;2022-07-09T06:20:50;4.45;;;1.30;;
33760;SDS011;20084;47.912;19.044;2022-07-09T06:23:16;2.38;;;1.00;;
33760;SDS011;20084;47.912;19.044;2022-07-09T06:25:41;1.08;;;0.95;;
33760;SDS011;20084;47.912;19.044;2022-07-09T06:28:07;3.22;;;0.90;;
33760;SDS011;20084;47.912;19.044;2022-07-09T06:30:33;4.00;;;1.55;;
33760;SDS011;20084;47.912;19.044;2022-07-09T06:32:59;2.15;;;1.00;;
33760;SDS011;20084;47.912;19.044;2022-07-09T06:35:25;1.52;;;1.08;;
33760;SDS011;20084;47.912;19.044;2022-07-09T06:37:51;1.83;;;0.80;;
33760;SDS011;20084;47.912;19.044;2022-07-09T06:40:17;3.45;;;1.02;;
33760;SDS011;20084;47.912;19.044;2022-07-09T06:42:42;3.30;;;1.20;;
33760;SDS011;20084;47.912;19.044;2022-07-09T06:45:08;2.42;;;0.73;;
33760;SDS011;20084;47.912;19.044;2022-07-09T06:47:34;1.15;;;1.05;;
33760;SDS011;20084;47.912;19.044;2022-07-09T06:50:00;1.92;;;1.15;;
33760;SDS011;20084;47.912;19.044;2022-07-09T06:52:26;3.17;;;0.82;;
33760;SDS011;20084;47.912;19.044;2022-07-09T06:54:52;7.43;;;1.00;;
33760;SDS011;20084;47.912;19.044;2022-07-09T06:57:18;6.55;;;1.10;;
33760;SDS011;20084;47.912;19.044;2022-07-09T06:59:44;2.05;;;0.88;;
33760;SDS011;20084;47.912;19.044;2022-07-09T07:02:13;1.80;;;1.00;;
33760;SDS011;20084;47.912;19.044;2022-07-09T07:04:41;1.40;;;0.93;;
33760;SDS011;20084;47.912;19.044;2022-07-09T07:07:07;0.88;;;0.70;;
33760;SDS011;20084;47.912;19.044;2022-07-09T07:09:32;2.40;;;1.13;;
33760;SDS011;20084;47.912;19.044;2022-07-09T07:11:58;2.03;;;1.20;;
33760;SDS011;20084;47.912;19.044;2022-07-09T07:14:24;1.23;;;1.00;;
33760;SDS011;20084;47.912;19.044;2022-07-09T07:16:49;1.90;;;1.27;;
33760;SDS011;20084;47.912;19.044;2022-07-09T07:19:15;1.77;;;0.90;;
33760;SDS011;20084;47.912;19.044;2022-07-09T07:21:42;1.70;;;0.82;;
33760;SDS011;20084;47.912;19.044;2022-07-09T07:24:07;2.22;;;1.20;;
33760;SDS011;20084;47.912;19.044;2022-07-09T07:26:34;2.97;;;1.23;;
33760;SDS011;20084;47.912;19.044;2022-07-09T07:29:00;1.38;;;0.80;;
33760;SDS011;20084;47.912;19.044;2022-07-09T07:31:26;2.20;;;1.20;;
33760;SDS011;20084;47.912;19.044;2022-07-09T07:33:52;3.85;;;1.08;;
33760;SDS011;20084;47.912;19.044;2022-07-09T07:36:18;2.05;;;1.13;;
33760;SDS011;20084;47.912;19.044;2022-07-09T07:38:43;1.73;;;1.02;;
33760;SDS011;20084;47.912;19.044;2022-07-09T07:41:12;2.22;;;1.00;;
33760;SDS011;20084;47.912;19.044;2022-07-09T07:43:38;0.90;;;0.80;;
33760;SDS011;20084;47.912;19.044;2022-07-09T07:46:04;3.83;;;1.25;;
33760;SDS011;20084;47.912;19.044;2022-07-09T07:48:30;3.13;;;1.10;;
33760;SDS011;20084;47.912;19.044;2022-07-09T07:50:56;3.00;;;1.20;;
33760;SDS011;20084;47.912;19.044;2022-07-09T07:53:22;8.23;;;1.25;;
33760;SDS011;20084;47.912;19.044;2022-07-09T07:55:48;11.90;;;1.20;;
33760;SDS011;20084;47.912;19.044;2022-07-09T07:58:14;2.30;;;1.20;;
33760;SDS011;20084;47.912;19.044;2022-07-09T08:00:40;1.10;;;0.90;;
33760;SDS011;20084;47.912;19.044;2022-07-09T08:03:06;3.08;;;1.17;;
33760;SDS011;20084;47.912;19.044;2022-07-09T08:05:31;1.48;;;0.80;;
33760;SDS011;20084;47.912;19.044;2022-07-09T08:07:57;1.80;;;0.88;;
33760;SDS011;20084;47.912;19.044;2022-07-09T08:10:23;2.13;;;1.05;;
33760;SDS011;20084;47.912;19.044;2022-07-09T08:12:49;1.02;;;0.80;;
33760;SDS011;20084;47.912;19.044;2022-07-09T08:15:15;4.47;;;1.10;;
33760;SDS011;20084;47.912;19.044;2022-07-09T08:17:40;1.88;;;0.82;;
33760;SDS011;20084;47.912;19.044;2022-07-09T08:20:06;5.20;;;0.95;;
33760;SDS011;20084;47.912;19.044;2022-07-09T08:22:32;1.58;;;0.80;;
33760;SDS011;20084;47.912;19.044;2022-07-09T08:24:58;6.18;;;0.95;;
33760;SDS011;20084;47.912;19.044;2022-07-09T08:27:24;1.23;;;0.85;;
33760;SDS011;20084;47.912;19.044;2022-07-09T08:29:49;2.28;;;1.00;;
33760;SDS011;20084;47.912;19.044;2022-07-09T08:32:15;3.72;;;0.85;;
33760;SDS011;20084;47.912;19.044;2022-07-09T08:34:41;4.75;;;0.90;;
33760;SDS011;20084;47.912;19.044;2022-07-09T08:37:07;1.17;;;0.80;;
33760;SDS011;20084;47.912;19.044;2022-07-09T08:39:32;2.75;;;0.90;;
33760;SDS011;20084;47.912;19.044;2022-07-09T08:41:58;3.53;;;0.90;;
33760;SDS011;20084;47.912;19.044;2022-07-09T08:44:30;8.35;;;0.70;;
33760;SDS011;20084;47.912;19.044;2022-07-09T08:47:00;5.80;;;0.80;;
33760;SDS011;20084;47.912;19.044;2022-07-09T08:49:26;0.93;;;0.80;;
33760;SDS011;20084;47.912;19.044;2022-07-09T08:51:53;1.17;;;0.90;;
33760;SDS011;20084;47.912;19.044;2022-07-09T08:54:21;3.80;;;1.15;;
33760;SDS011;20084;47.912;19.044;2022-07-09T08:56:49;3.35;;;1.08;;
33760;SDS011;20084;47.912;19.044;2022-07-09T08:59:16;2.25;;;0.98;;
33760;SDS011;20084;47.912;19.044;2022-07-09T09:01:42;1.88;;;0.98;;
33760;SDS011;20084;47.912;19.044;2022-07-09T09:04:08;2.65;;;0.90;;
33760;SDS011;20084;47.912;19.044;2022-07-09T09:06:37;3.67;;;0.90;;
33760;SDS011;20084;47.912;19.044;2022-07-09T09:09:06;2.10;;;1.42;;
33760;SDS011;20084;47.912;19.044;2022-07-09T09:11:33;2.65;;;0.98;;
33760;SDS011;20084;47.912;19.044;2022-07-09T09:14:01;5.30;;;0.93;;
33760;SDS011;20084;47.912;19.044;2022-07-09T09:16:28;3.05;;;0.93;;
33760;SDS011;20084;47.912;19.044;2022-07-09T09:18:55;1.23;;;0.73;;
33760;SDS011;20084;47.912;19.044;2022-07-09T09:21:22;2.25;;;0.77;;
33760;SDS011;20084;47.912;19.044;2022-07-09T09:23:53;1.65;;;0.88;;
33760;SDS011;20084;47.912;19.044;2022-07-09T09:26:21;2.60;;;0.67;;
33760;SDS011;20084;47.912;19.044;2022-07-09T09:28:49;2.72;;;0.63;;
33760;SDS011;20084;47.912;19.044;2022-07-09T09:33:54;3.30;;;0.95;;
33760;SDS011;20084;47.912;19.044;2022-07-09T09:36:26;0.85;;;0.60;;
33760;SDS011;20084;47.912;19.044;2022-07-09T09:39:06;1.35;;;0.90;;
33760;SDS011;20084;47.912;19.044;2022-07-09T09:41:44;1.63;;;0.63;;
33760;SDS011;20084;47.912;19.044;2022-07-09T09:44:18;1.52;;;0.70;;
33760;SDS011;20084;47.912;19.044;2022-07-09T09:46:45;1.92;;;0.80;;
33760;SDS011;20084;47.912;19.044;2022-07-09T09:49:12;2.03;;;0.50;;
33760;SDS011;20084;47.912;19.044;2022-07-09T09:54:15;3.15;;;0.85;;
33760;SDS011;20084;47.912;19.044;2022-07-09T09:56:42;2.83;;;0.95;;
33760;SDS011;20084;47.912;19.044;2022-07-09T09:59:09;1.92;;;0.90;;
33760;SDS011;20084;47.912;19.044;2022-07-09T10:01:35;1.58;;;0.68;;
33760;SDS011;20084;47.912;19.044;2022-07-09T10:04:02;1.17;;;0.50;;
33760;SDS011;20084;47.912;19.044;2022-07-09T10:06:28;2.90;;;1.00;;
33760;SDS011;20084;47.912;19.044;2022-07-09T10:08:54;1.60;;;0.68;;
33760;SDS011;20084;47.912;19.044;2022-07-09T10:11:21;2.80;;;1.05;;
33760;SDS011;20084;47.912;19.044;2022-07-09T10:13:50;2.80;;;0.80;;
33760;SDS011;20084;47.912;19.044;2022-07-09T10:16:41;3.30;;;0.80;;
33760;SDS011;20084;47.912;19.044;2022-07-09T10:19:06;2.75;;;0.77;;
33760;SDS011;20084;47.912;19.044;2022-07-09T10:23:57;1.77;;;0.88;;
33760;SDS011;20084;47.912;19.044;2022-07-09T10:26:34;1.60;;;1.00;;
33760;SDS011;20084;47.912;19.044;2022-07-09T10:29:02;3.90;;;0.90;;
33760;SDS011;20084;47.912;19.044;2022-07-09T10:31:28;4.03;;;0.90;;
33760;SDS011;20084;47.912;19.044;2022-07-09T10:34:01;4.05;;;0.88;;
33760;SDS011;20084;47.912;19.044;2022-07-09T10:36:33;1.23;;;0.70;;
33760;SDS011;20084;47.912;19.044;2022-07-09T10:38:58;1.73;;;0.65;;
33760;SDS011;20084;47.912;19.044;2022-07-09T10:41:24;4.97;;;0.88;;
33760;SDS011;20084;47.912;19.044;2022-07-09T10:43:50;1.70;;;0.80;;
33760;SDS011;20084;47.912;19.044;2022-07-09T10:46:17;2.92;;;0.98;;
33760;SDS011;20084;47.912;19.044;2022-07-09T10:48:46;1.48;;;0.65;;
33760;SDS011;20084;47.912;19.044;2022-07-09T10:51:18;2.25;;;0.50;;
33760;SDS011;20084;47.912;19.044;2022-07-09T10:53:45;2.72;;;0.60;;
33760;SDS011;20084;47.912;19.044;2022-07-09T10:56:11;5.45;;;0.80;;
33760;SDS011;20084;47.912;19.044;2022-07-09T10:58:44;1.67;;;0.77;;
33760;SDS011;20084;47.912;19.044;2022-07-09T11:01:11;2.40;;;0.75;;
33760;SDS011;20084;47.912;19.044;2022-07-09T11:03:46;1.20;;;0.60;;
33760;SDS011;20084;47.912;19.044;2022-07-09T11:06:17;1.95;;;0.65;;
33760;SDS011;20084;47.912;19.044;2022-07-09T11:08:42;3.13;;;0.60;;
33760;SDS011;20084;47.912;19.044;2022-07-09T11:11:08;1.45;;;0.40;;
33760;SDS011;20084;47.912;19.044;2022-07-09T11:13:34;0.95;;;0.50;;
33760;SDS011;20084;47.912;19.044;2022-07-09T11:16:00;1.08;;;0.50;;
33760;SDS011;20084;47.912;19.044;2022-07-09T11:18:27;1.98;;;0.77;;
33760;SDS011;20084;47.912;19.044;2022-07-09T11:20:53;2.25;;;0.70;;
33760;SDS011;20084;47.912;19.044;2022-07-09T11:23:19;2.85;;;0.90;;
33760;SDS011;20084;47.912;19.044;2022-07-09T11:25:44;2.28;;;0.63;;
33760;SDS011;20084;47.912;19.044;2022-07-09T11:28:21;1.05;;;0.60;;
33760;SDS011;20084;47.912;19.044;2022-07-09T11:31:01;1.67;;;0.70;;
33760;SDS011;20084;47.912;19.044;2022-07-09T11:33:27;4.00;;;0.70;;
33760;SDS011;20084;47.912;19.044;2022-07-09T11:36:14;1.08;;;0.70;;
33760;SDS011;20084;47.912;19.044;2022-07-09T11:38:50;1.58;;;0.68;;
33760;SDS011;20084;47.912;19.044;2022-07-09T11:41:17;2.25;;;0.70;;
33760;SDS011;20084;47.912;19.044;2022-07-09T11:43:49;1.67;;;0.60;;
33760;SDS011;20084;47.912;19.044;2022-07-09T11:46:19;2.55;;;0.80;;
33760;SDS011;20084;47.912;19.044;2022-07-09T11:48:49;2.10;;;0.60;;
33760;SDS011;20084;47.912;19.044;2022-07-09T11:51:31;3.35;;;0.50;;
33760;SDS011;20084;47.912;19.044;2022-07-09T11:53:58;1.80;;;0.70;;
33760;SDS011;20084;47.912;19.044;2022-07-09T11:56:24;0.93;;;0.65;;
33760;SDS011;20084;47.912;19.044;2022-07-09T11:58:50;1.17;;;0.47;;
33760;SDS011;20084;47.912;19.044;2022-07-09T12:01:16;2.47;;;0.50;;
33760;SDS011;20084;47.912;19.044;2022-07-09T12:03:49;0.85;;;0.50;;
33760;SDS011;20084;47.912;19.044;2022-07-09T12:06:15;2.17;;;0.73;;
33760;SDS011;20084;47.912;19.044;2022-07-09T12:08:41;1.92;;;0.70;;
33760;SDS011;20084;47.912;19.044;2022-07-09T12:11:08;1.15;;;0.60;;
33760;SDS011;20084;47.912;19.044;2022-07-09T12:13:34;2.05;;;0.63;;
33760;SDS011;20084;47.912;19.044;2022-07-09T12:15:59;0.80;;;0.60;;
33760;SDS011;20084;47.912;19.044;2022-07-09T12:18:25;1.15;;;0.60;;
33760;SDS011;20084;47.912;19.044;2022-07-09T12:20:51;4.50;;;0.52;;
33760;SDS011;20084;47.912;19.044;2022-07-09T12:23:16;4.47;;;0.60;;
33760;SDS011;20084;47.912;19.044;2022-07-09T12:25:42;1.25;;;0.65;;
33760;SDS011;20084;47.912;19.044;2022-07-09T12:28:08;4.22;;;0.40;;
33760;SDS011;20084;47.912;19.044;2022-07-09T12:30:34;0.90;;;0.50;;
33760;SDS011;20084;47.912;19.044;2022-07-09T12:32:59;1.10;;;0.32;;
33760;SDS011;20084;47.912;19.044;2022-07-09T12:35:26;3.28;;;0.55;;
33760;SDS011;20084;47.912;19.044;2022-07-09T12:37:52;0.80;;;0.30;;
33760;SDS011;20084;47.912;19.044;2022-07-09T12:40:19;1.33;;;0.70;;
33760;SDS011;20084;47.912;19.044;2022-07-09T12:42:45;1.80;;;0.40;;
33760;SDS011;20084;47.912;19.044;2022-07-09T12:45:11;2.15;;;0.40;;
33760;SDS011;20084;47.912;19.044;2022-07-09T12:47:37;0.65;;;0.40;;
33760;SDS011;20084;47.912;19.044;2022-07-09T12:50:03;2.58;;;0.30;;
33760;SDS011;20084;47.912;19.044;2022-07-09T12:52:33;1.75;;;0.50;;
33760;SDS011;20084;47.912;19.044;2022-07-09T12:55:02;0.88;;;0.40;;
33760;SDS011;20084;47.912;19.044;2022-07-09T12:57:29;2.35;;;0.50;;
33760;SDS011;20084;47.912;19.044;2022-07-09T12:59:55;1.13;;;0.45;;
33760;SDS011;20084;47.912;19.044;2022-07-09T13:02:21;4.72;;;0.40;;
33760;SDS011;20084;47.912;19.044;2022-07-09T13:04:46;0.93;;;0.40;;
33760;SDS011;20084;47.912;19.044;2022-07-09T13:07:12;0.65;;;0.30;;
33760;SDS011;20084;47.912;19.044;2022-07-09T13:09:39;0.52;;;0.20;;
33760;SDS011;20084;47.912;19.044;2022-07-09T13:12:04;0.45;;;0.30;;
33760;SDS011;20084;47.912;19.044;2022-07-09T13:14:31;0.52;;;0.30;;
33760;SDS011;20084;47.912;19.044;2022-07-09T13:16:56;0.32;;;0.30;;
33760;SDS011;20084;47.912;19.044;2022-07-09T13:19:22;0.40;;;0.40;;
33760;SDS011;20084;47.912;19.044;2022-07-09T13:21:47;1.65;;;0.50;;
33760;SDS011;20084;47.912;19.044;2022-07-09T13:24:13;1.67;;;0.45;;
33760;SDS011;20084;47.912;19.044;2022-07-09T13:26:40;1.27;;;0.32;;
33760;SDS011;20084;47.912;19.044;2022-07-09T13:29:06;1.50;;;0.30;;
33760;SDS011;20084;47.912;19.044;2022-07-09T13:31:32;0.82;;;0.30;;
33760;SDS011;20084;47.912;19.044;2022-07-09T13:33:58;1.17;;;0.32;;
33760;SDS011;20084;47.912;19.044;2022-07-09T13:36:24;1.27;;;0.20;;
33760;SDS011;20084;47.912;19.044;2022-07-09T13:38:49;0.25;;;0.20;;
33760;SDS011;20084;47.912;19.044;2022-07-09T13:41:15;0.73;;;0.20;;
33760;SDS011;20084;47.912;19.044;2022-07-09T13:43:42;1.27;;;0.60;;
33760;SDS011;20084;47.912;19.044;2022-07-09T13:46:08;1.80;;;0.30;;
33760;SDS011;20084;47.912;19.044;2022-07-09T13:48:34;0.15;;;0.15;;
33760;SDS011;20084;47.912;19.044;2022-07-09T13:51:00;1.27;;;0.20;;
33760;SDS011;20084;47.912;19.044;2022-07-09T13:53:26;1.95;;;0.30;;
33760;SDS011;20084;47.912;19.044;2022-07-09T13:55:53;1.00;;;0.25;;
33760;SDS011;20084;47.912;19.044;2022-07-09T13:58:19;1.95;;;0.43;;
33760;SDS011;20084;47.912;19.044;2022-07-09T14:00:44;1.70;;;0.30;;
33760;SDS011;20084;47.912;19.044;2022-07-09T14:03:10;5.97;;;0.30;;
33760;SDS011;20084;47.912;19.044;2022-07-09T14:05:36;0.30;;;0.30;;
33760;SDS011;20084;47.912;19.044;2022-07-09T14:08:03;2.05;;;0.20;;
33760;SDS011;20084;47.912;19.044;2022-07-09T14:10:30;0.40;;;0.20;;
33760;SDS011;20084;47.912;19.044;2022-07-09T14:12:57;0.40;;;0.30;;
33760;SDS011;20084;47.912;19.044;2022-07-09T14:15:23;1.20;;;0.50;;
33760;SDS011;20084;47.912;19.044;2022-07-09T14:17:49;0.70;;;0.32;;
33760;SDS011;20084;47.912;19.044;2022-07-09T14:20:14;0.30;;;0.30;;
33760;SDS011;20084;47.912;19.044;2022-07-09T14:22:40;0.50;;;0.25;;
33760;SDS011;20084;47.912;19.044;2022-07-09T14:25:06;0.30;;;0.30;;
33760;SDS011;20084;47.912;19.044;2022-07-09T14:27:32;0.20;;;0.20;;
33760;SDS011;20084;47.912;19.044;2022-07-09T14:29:58;0.90;;;0.40;;
33760;SDS011;20084;47.912;19.044;2022-07-09T14:32:24;0.80;;;0.20;;
33760;SDS011;20084;47.912;19.044;2022-07-09T14:34:49;0.32;;;0.28;;
33760;SDS011;20084;47.912;19.044;2022-07-09T14:37:16;0.20;;;0.20;;